Continental Highway — H9LY — position and weather

sailwx.info

Track history (hours):
 
Tides and Currents Weather Stations Pressure Air Temp Water Temp Dewpoint Dewpoint Depression Visibility Wind Speed Wind Dir Waves Ship Positions

Continental Highway

Last reported at 2015-Jul-29 01:31 UTC. Time now 2015-Jul-31 13:27 UTC.
Position N 35°32' E 141°58'.

Length 199.9 m; beam 32.2 m.

Type: Cargo ship. MMSI: 351223000.

Date/timePositionNaut miles runAvg speedWind from/ knotsBaromVisibWave heightAir tempDewpointWater temp
2015-Jul-29 01:31N 35°32' E 141°58'1515.9
2015-Jul-29 00:33N 35°25' E 141°42'1616.3
2015-Jul-28 23:33N 35°17' E 141°25'1716.6
2015-Jul-28 22:33N 35°10' E 141°06'1815.6
2015-Jul-28 21:25N 35°01' E 140°47'1315.0
2015-Jul-28 20:32N 34°55' E 140°33'1515.6
2015-Jul-28 19:34N 34°47' E 140°17'1716.7
2015-Jul-28 18:33N 34°40' E 139°59'1717.4
2015-Jul-28 17:33N 34°35' E 139°38'1916.8
2015-Jul-28 16:25N 34°34' E 139°15'3416.8
2015-Jul-28 14:23N 34°29' E 138°34'  
2015-Jul-26 07:07N 34°55' E 140°38'1017.8
2015-Jul-26 06:33N 34°60' E 140°48'1817.5
2015-Jul-26 05:33N 35°07' E 141°08'1716.6
2015-Jul-26 04:33N 35°15' E 141°26'1716.9
2015-Jul-26 03:33N 35°22' E 141°45'1817.6
2015-Jul-26 02:33N 35°30' E 142°04'1716.7
2015-Jul-26 01:33N 35°38' E 142°22'3316.2
2015-Jul-25 23:32N 35°52' E 142°58'8215.0
2015-Jul-25 18:05N 36°28' E 144°29'1115.9
2015-Jul-25 17:22N 36°33' E 144°42'  
Track history (hours):
 
Tides and Currents Weather Stations Pressure Air Temp Water Temp Dewpoint Dewpoint Depression Visibility Wind Speed Wind Dir Waves Ship Positions

Continental Highway

Last reported at 2015-Jul-29 01:31 UTC. Time now 2015-Jul-31 13:27 UTC.
Position N 35°32' E 141°58'.

Length 199.9 m; beam 32.2 m.

Type: Cargo ship. MMSI: 351223000.

Date/timePositionNaut miles runAvg speedWind from/ knotsBaromVisibWave heightAir tempDewpointWater temp
2015-Jul-29 01:31N 35°32' E 141°58'1515.9
2015-Jul-29 00:33N 35°25' E 141°42'1616.3
2015-Jul-28 23:33N 35°17' E 141°25'1716.6
2015-Jul-28 22:33N 35°10' E 141°06'1815.6
2015-Jul-28 21:25N 35°01' E 140°47'1315.0
2015-Jul-28 20:32N 34°55' E 140°33'1515.6
2015-Jul-28 19:34N 34°47' E 140°17'1716.7
2015-Jul-28 18:33N 34°40' E 139°59'1717.4
2015-Jul-28 17:33N 34°35' E 139°38'1916.8
2015-Jul-28 16:25N 34°34' E 139°15'3416.8
2015-Jul-28 14:23N 34°29' E 138°34'  
2015-Jul-26 07:07N 34°55' E 140°38'1017.8
2015-Jul-26 06:33N 34°60' E 140°48'1817.5
2015-Jul-26 05:33N 35°07' E 141°08'1716.6
2015-Jul-26 04:33N 35°15' E 141°26'1716.9
2015-Jul-26 03:33N 35°22' E 141°45'1817.6
2015-Jul-26 02:33N 35°30' E 142°04'1716.7
2015-Jul-26 01:33N 35°38' E 142°22'3316.2
2015-Jul-25 23:32N 35°52' E 142°58'8215.0
2015-Jul-25 18:05N 36°28' E 144°29'1115.9
2015-Jul-25 17:22N 36°33' E 144°42'  

Dump ship's entire track history